createdAt,value
2022-08-02T00:00:15.908Z,99.90
2022-08-02T00:02:47.778Z,99.90
2022-08-02T00:05:18.671Z,99.90
2022-08-02T00:07:49.717Z,99.90
2022-08-02T00:10:20.743Z,99.90
2022-08-02T00:12:51.833Z,99.90
2022-08-02T00:15:24.398Z,99.90
2022-08-02T00:17:55.365Z,99.90
2022-08-02T00:20:26.320Z,99.90
2022-08-02T00:22:57.210Z,99.90
2022-08-02T00:25:28.139Z,99.90
2022-08-02T00:27:59.025Z,99.90
2022-08-02T00:30:30.074Z,99.90
2022-08-02T00:33:02.585Z,99.90
2022-08-02T00:35:33.550Z,99.90
2022-08-02T00:38:05.076Z,99.90
2022-08-02T00:40:36.058Z,99.90
2022-08-02T00:43:11.573Z,99.90
2022-08-02T00:46:03.365Z,99.90
2022-08-02T00:48:34.432Z,99.90
2022-08-02T00:51:05.886Z,99.90
2022-08-02T00:53:36.955Z,99.90
2022-08-02T00:56:08.126Z,99.90
2022-08-02T00:58:39.174Z,99.90
2022-08-02T01:01:10.179Z,99.90
2022-08-02T01:03:41.257Z,99.90
2022-08-02T01:06:12.239Z,99.90
2022-08-02T01:08:43.881Z,99.90
2022-08-02T01:11:15.482Z,99.90
2022-08-02T01:13:46.605Z,99.90
2022-08-02T01:16:23.797Z,99.90
2022-08-02T01:19:16.098Z,99.90
2022-08-02T01:22:15.085Z,99.90
2022-08-02T01:25:27.500Z,99.90
2022-08-02T01:28:47.569Z,99.90
2022-08-02T01:31:42.611Z,99.90
2022-08-02T01:34:24.715Z,99.90
2022-08-02T01:37:07.046Z,99.90
2022-08-02T01:39:41.072Z,99.90
2022-08-02T01:42:12.960Z,99.90
2022-08-02T01:44:46.052Z,99.90
2022-08-02T01:47:26.633Z,99.90
2022-08-02T01:50:00.027Z,99.90
2022-08-02T01:52:36.749Z,99.90
2022-08-02T01:55:18.829Z,99.90
2022-08-02T01:57:59.198Z,99.90
2022-08-02T02:00:34.506Z,99.90
2022-08-02T02:03:09.468Z,99.90
2022-08-02T02:05:44.503Z,99.90
2022-08-02T02:08:27.091Z,99.90
2022-08-02T02:12:05.226Z,99.90
2022-08-02T02:13:53.232Z,99.90
2022-08-02T02:16:27.264Z,99.90
2022-08-02T02:19:02.108Z,99.90
2022-08-02T02:21:35.041Z,99.90
2022-08-02T02:24:11.671Z,99.90
2022-08-02T02:26:52.284Z,99.90
2022-08-02T02:29:29.002Z,99.90
2022-08-02T02:32:01.441Z,99.90
2022-08-02T02:34:43.420Z,99.90
2022-08-02T02:37:22.832Z,99.90
2022-08-02T02:39:56.205Z,99.90
2022-08-02T02:42:31.616Z,99.90
2022-08-02T02:45:04.662Z,99.90
2022-08-02T02:47:40.424Z,99.90
2022-08-02T02:50:12.996Z,99.90
2022-08-02T02:52:45.328Z,99.90
2022-08-02T02:55:18.303Z,99.90
2022-08-02T02:57:49.809Z,99.90
2022-08-02T03:00:41.520Z,99.90
2022-08-02T03:03:13.825Z,99.90
2022-08-02T03:05:45.774Z,99.90
2022-08-02T03:08:16.950Z,99.90
2022-08-02T03:10:50.811Z,99.90
2022-08-02T03:13:22.021Z,99.90
2022-08-02T03:15:55.873Z,99.90
2022-08-02T03:18:41.895Z,99.90
2022-08-02T03:21:16.644Z,99.90
2022-08-02T03:23:48.424Z,99.90
2022-08-02T03:26:19.369Z,99.90
2022-08-02T03:28:50.260Z,99.90
2022-08-02T03:31:21.205Z,99.90
2022-08-02T03:33:52.654Z,99.90
2022-08-02T03:36:26.425Z,99.90
2022-08-02T03:38:58.423Z,99.90
2022-08-02T03:41:30.891Z,99.90
2022-08-02T03:44:03.101Z,99.90
2022-08-02T03:46:34.611Z,99.90
2022-08-02T03:49:10.912Z,99.90
2022-08-02T03:51:42.039Z,99.90
2022-08-02T03:54:13.992Z,99.90
2022-08-02T03:56:45.925Z,99.90
2022-08-02T03:59:16.895Z,99.90
2022-08-02T04:01:47.761Z,99.90
2022-08-02T04:04:18.728Z,99.90
2022-08-02T04:06:49.655Z,99.90
2022-08-02T04:09:20.551Z,99.90
2022-08-02T04:11:51.457Z,99.90
2022-08-02T04:14:23.220Z,99.90
2022-08-02T04:17:00.130Z,99.90
2022-08-02T04:19:34.406Z,99.90
2022-08-02T04:22:24.585Z,99.90
2022-08-02T04:25:00.521Z,99.90
2022-08-02T04:28:15.395Z,99.90
2022-08-02T04:30:23.994Z,99.90
2022-08-02T04:32:55.499Z,99.90
2022-08-02T04:35:26.957Z,99.90
2022-08-02T04:38:09.491Z,99.90
2022-08-02T04:40:41.487Z,99.90
2022-08-02T04:43:12.939Z,99.90
2022-08-02T04:45:45.146Z,99.90
2022-08-02T04:48:16.116Z,99.90
2022-08-02T04:50:47.376Z,99.90
2022-08-02T04:53:18.762Z,99.90
2022-08-02T04:55:50.236Z,99.90
2022-08-02T04:58:39.849Z,99.90
2022-08-02T05:01:11.675Z,99.90
2022-08-02T05:03:42.653Z,99.90
2022-08-02T05:06:19.930Z,99.90
2022-08-02T05:08:52.806Z,99.90
2022-08-02T05:11:30.038Z,99.90
2022-08-02T05:14:06.821Z,99.90
2022-08-02T05:16:37.697Z,99.90
2022-08-02T05:19:08.598Z,99.90
2022-08-02T05:21:39.594Z,99.90
2022-08-02T05:24:10.560Z,99.90
2022-08-02T05:26:41.413Z,99.90
2022-08-02T05:29:12.369Z,99.90
2022-08-02T05:31:43.412Z,99.90
2022-08-02T05:34:14.333Z,99.90
2022-08-02T05:36:45.543Z,99.90
2022-08-02T05:39:18.882Z,99.90
2022-08-02T05:41:50.808Z,99.90
2022-08-02T05:44:21.691Z,99.90
2022-08-02T05:46:52.625Z,99.90
2022-08-02T05:49:23.653Z,99.90
2022-08-02T05:52:00.741Z,99.90
2022-08-02T05:54:46.529Z,99.90
2022-08-02T05:57:53.673Z,99.90
2022-08-02T06:00:26.359Z,99.90
2022-08-02T06:03:26.291Z,99.90
2022-08-02T06:06:14.132Z,99.90
2022-08-02T06:08:49.515Z,99.90
2022-08-02T06:11:25.297Z,99.90
2022-08-02T06:13:56.502Z,99.90
2022-08-02T06:16:32.097Z,99.90
2022-08-02T06:19:04.479Z,99.90
2022-08-02T06:22:29.942Z,99.90
2022-08-02T06:24:28.548Z,99.90
2022-08-02T06:27:00.348Z,99.90
2022-08-02T06:29:38.703Z,99.90
2022-08-02T06:32:11.113Z,99.90
2022-08-02T06:34:42.288Z,99.90
2022-08-02T06:37:40.404Z,99.90
2022-08-02T06:40:41.314Z,99.90
2022-08-02T06:43:39.179Z,99.90
2022-08-02T06:46:37.558Z,99.90
2022-08-02T06:49:02.915Z,99.90
2022-08-02T06:51:34.199Z,99.90
2022-08-02T06:54:05.288Z,99.90
2022-08-02T06:56:39.629Z,99.90
2022-08-02T06:59:10.608Z,99.90
2022-08-02T07:01:42.160Z,99.90
2022-08-02T07:04:14.814Z,99.90
2022-08-02T07:06:47.349Z,99.90
2022-08-02T07:09:21.178Z,99.90
2022-08-02T07:11:55.798Z,99.90
2022-08-02T07:14:26.900Z,99.90
2022-08-02T07:16:58.559Z,99.90
2022-08-02T07:19:37.896Z,99.90
2022-08-02T07:22:09.465Z,99.90
2022-08-02T07:24:40.891Z,99.90
2022-08-02T07:27:12.876Z,99.90
2022-08-02T07:29:45.872Z,99.90
2022-08-02T07:32:20.913Z,99.90
2022-08-02T07:34:55.065Z,99.90
2022-08-02T07:37:53.961Z,99.90
2022-08-02T07:40:25.353Z,99.90
2022-08-02T07:43:03.542Z,99.90
2022-08-02T07:45:35.938Z,99.90
2022-08-02T07:48:08.523Z,99.90
2022-08-02T07:50:39.588Z,99.90
2022-08-02T07:53:10.563Z,99.90
2022-08-02T07:55:41.525Z,99.90
2022-08-02T07:58:13.653Z,99.90
2022-08-02T08:00:45.083Z,99.90
2022-08-02T08:03:16.053Z,99.90
2022-08-02T08:05:47.446Z,99.90
2022-08-02T08:08:18.337Z,99.90
2022-08-02T08:10:49.876Z,99.90
2022-08-02T08:13:20.776Z,99.90
2022-08-02T08:15:52.654Z,99.90
2022-08-02T08:18:23.834Z,99.90
2022-08-02T08:20:54.903Z,99.90
2022-08-02T08:23:25.827Z,99.90
2022-08-02T08:25:56.766Z,99.90
2022-08-02T08:28:27.832Z,99.90
2022-08-02T08:30:58.879Z,99.90
2022-08-02T08:33:29.923Z,99.90
2022-08-02T08:36:02.611Z,99.90
2022-08-02T08:38:33.744Z,99.90
2022-08-02T08:41:04.847Z,99.90
2022-08-02T08:43:39.295Z,99.90
2022-08-02T08:46:21.265Z,99.90
2022-08-02T08:49:00.521Z,99.90
2022-08-02T08:51:38.295Z,99.90
2022-08-02T08:54:15.976Z,99.90
2022-08-02T08:56:47.127Z,99.90
2022-08-02T08:59:18.471Z,99.90
2022-08-02T09:01:51.442Z,99.90
2022-08-02T09:04:22.576Z,99.90
2022-08-02T09:06:53.701Z,99.80
2022-08-02T09:09:24.789Z,99.30
2022-08-02T09:12:13.575Z,99.10
2022-08-02T09:14:49.978Z,99.00
2022-08-02T09:17:22.130Z,99.60
2022-08-02T09:20:13.761Z,99.40
2022-08-02T09:22:44.714Z,99.00
2022-08-02T09:25:16.875Z,98.60
2022-08-02T09:27:49.407Z,98.40
2022-08-02T09:30:20.455Z,98.10
2022-08-02T09:32:51.419Z,97.70
2022-08-02T09:36:06.582Z,97.80
2022-08-02T09:38:30.628Z,97.60
2022-08-02T09:41:02.077Z,97.00
2022-08-02T09:44:03.209Z,97.20
2022-08-02T09:46:45.606Z,97.00
2022-08-02T09:49:19.761Z,96.60
2022-08-02T09:51:54.133Z,96.20
2022-08-02T09:54:28.807Z,96.20
2022-08-02T09:57:01.669Z,95.90
2022-08-02T09:59:32.732Z,95.70
2022-08-02T10:02:14.821Z,95.50
2022-08-02T10:04:53.441Z,95.40
2022-08-02T10:07:25.095Z,95.40
2022-08-02T10:09:57.145Z,95.20
2022-08-02T10:12:28.424Z,94.60
2022-08-02T10:14:59.941Z,94.00
2022-08-02T10:17:31.023Z,94.00
2022-08-02T10:20:04.821Z,94.20
2022-08-02T10:22:38.927Z,93.90
2022-08-02T10:25:10.663Z,93.40
2022-08-02T10:28:04.258Z,93.30
2022-08-02T10:30:43.196Z,93.70
2022-08-02T10:33:19.350Z,93.70
2022-08-02T10:36:04.545Z,93.30
2022-08-02T10:38:38.623Z,92.90
2022-08-02T10:41:09.579Z,92.70
2022-08-02T10:43:43.844Z,91.90
2022-08-02T10:46:34.566Z,92.30
2022-08-02T10:49:38.619Z,92.10
2022-08-02T10:52:11.232Z,92.20
2022-08-02T10:54:56.303Z,92.30
2022-08-02T10:57:31.776Z,92.40
2022-08-02T11:00:10.057Z,92.00
2022-08-02T11:02:47.291Z,91.60
2022-08-02T11:05:42.208Z,91.40
2022-08-02T11:08:22.606Z,90.70
2022-08-02T11:11:09.330Z,90.60
2022-08-02T11:14:15.903Z,90.50
2022-08-02T11:16:55.522Z,90.10
2022-08-02T11:19:27.800Z,90.20
2022-08-02T11:22:12.377Z,89.50
2022-08-02T11:24:43.681Z,85.60
2022-08-02T11:27:21.945Z,84.20
2022-08-02T11:29:53.210Z,82.60
2022-08-02T11:32:31.107Z,77.00
2022-08-02T11:35:03.593Z,75.60
2022-08-02T11:37:37.725Z,76.70
2022-08-02T11:40:19.323Z,78.30
2022-08-02T11:42:51.069Z,78.90
2022-08-02T11:45:29.773Z,80.00
2022-08-02T11:48:00.992Z,80.40
2022-08-02T11:50:32.054Z,79.30
2022-08-02T11:53:13.048Z,78.80
2022-08-02T11:55:44.110Z,79.40
2022-08-02T11:58:14.985Z,79.30
2022-08-02T12:00:47.107Z,79.60
2022-08-02T12:03:19.881Z,80.00
2022-08-02T12:06:05.602Z,80.40
2022-08-02T12:08:38.362Z,80.60
2022-08-02T12:11:09.446Z,80.00
2022-08-02T12:13:44.904Z,80.40
2022-08-02T12:16:58.913Z,80.90
2022-08-02T12:19:29.978Z,81.30
2022-08-02T12:22:16.395Z,81.00
2022-08-02T12:24:50.999Z,79.40
2022-08-02T12:27:31.697Z,77.80
2022-08-02T12:30:13.874Z,77.60
2022-08-02T12:32:46.121Z,76.90
2022-08-02T12:35:26.476Z,75.30
2022-08-02T12:37:58.048Z,75.00
2022-08-02T12:40:33.357Z,75.50
2022-08-02T12:43:07.608Z,74.30
2022-08-02T12:45:56.685Z,72.60
2022-08-02T12:48:37.452Z,72.70
2022-08-02T12:51:56.327Z,71.50
2022-08-02T12:54:32.726Z,71.60
2022-08-02T12:57:16.060Z,71.00
2022-08-02T12:59:54.342Z,71.90
2022-08-02T13:02:25.344Z,70.60
2022-08-02T13:05:00.091Z,70.60
2022-08-02T13:07:31.080Z,71.10
2022-08-02T13:10:03.516Z,70.70
2022-08-02T13:12:35.900Z,70.30
2022-08-02T13:15:12.354Z,69.70
2022-08-02T13:18:02.146Z,70.80
2022-08-02T13:20:33.152Z,69.90
2022-08-02T13:23:04.410Z,69.20
2022-08-02T13:25:35.449Z,69.90
2022-08-02T13:28:06.348Z,70.20
2022-08-02T13:30:38.252Z,69.10
2022-08-02T13:33:09.133Z,70.20
2022-08-02T13:35:40.125Z,68.90
2022-08-02T13:38:11.647Z,68.50
2022-08-02T13:41:05.191Z,67.80
2022-08-02T13:43:53.708Z,67.70
2022-08-02T13:46:28.626Z,68.00
2022-08-02T13:49:00.535Z,66.60
2022-08-02T13:51:31.592Z,66.90
2022-08-02T13:54:08.184Z,66.90
2022-08-02T13:56:39.148Z,67.20
2022-08-02T13:59:26.301Z,68.00
2022-08-02T14:02:01.880Z,67.00
2022-08-02T14:04:33.093Z,67.00
2022-08-02T14:07:04.040Z,66.70
2022-08-02T14:09:36.180Z,66.50
2022-08-02T14:12:07.824Z,66.90
2022-08-02T14:14:39.553Z,66.70
2022-08-02T14:17:11.638Z,64.70
2022-08-02T14:19:43.697Z,64.50
2022-08-02T14:22:14.670Z,65.20
2022-08-02T14:24:45.887Z,65.20
2022-08-02T14:27:16.792Z,65.10
2022-08-02T14:29:51.334Z,64.00
2022-08-02T14:32:22.242Z,64.40
2022-08-02T14:35:03.914Z,64.10
2022-08-02T14:37:34.893Z,63.60
2022-08-02T14:40:06.838Z,63.00
2022-08-02T14:42:57.909Z,63.30
2022-08-02T14:45:39.899Z,63.00
2022-08-02T14:48:12.484Z,61.60
2022-08-02T14:50:43.499Z,62.80
2022-08-02T14:53:14.623Z,61.80
2022-08-02T14:55:45.712Z,61.30
2022-08-02T14:58:17.180Z,61.00
2022-08-02T15:00:48.166Z,61.00
2022-08-02T15:03:22.171Z,61.30
2022-08-02T15:05:53.153Z,61.00
2022-08-02T15:08:24.887Z,61.00
2022-08-02T15:10:55.864Z,61.00
2022-08-02T15:13:26.805Z,60.40
2022-08-02T15:15:58.111Z,60.90
2022-08-02T15:18:29.128Z,60.00
2022-08-02T15:21:01.135Z,59.90
2022-08-02T15:23:46.173Z,59.30
2022-08-02T15:26:17.128Z,59.30
2022-08-02T15:28:55.633Z,59.10
2022-08-02T15:31:33.181Z,59.10
2022-08-02T15:34:04.730Z,58.90
2022-08-02T15:36:35.779Z,58.40
2022-08-02T15:39:06.777Z,58.60
2022-08-02T15:41:37.747Z,58.10
2022-08-02T15:44:10.013Z,58.10
2022-08-02T15:46:41.054Z,57.20
2022-08-02T15:49:12.073Z,57.30
2022-08-02T15:51:43.096Z,57.50
2022-08-02T15:54:14.044Z,57.00
2022-08-02T15:56:45.079Z,58.00
2022-08-02T15:59:16.011Z,57.30
2022-08-02T16:01:50.103Z,56.90
2022-08-02T16:04:21.181Z,57.30
2022-08-02T16:06:52.101Z,57.30
2022-08-02T16:09:23.062Z,56.60
2022-08-02T16:11:53.977Z,56.80
2022-08-02T16:14:25.154Z,56.70
2022-08-02T16:16:57.056Z,56.20
2022-08-02T16:19:46.498Z,56.50
2022-08-02T16:22:19.093Z,56.70
2022-08-02T16:24:50.774Z,56.10
2022-08-02T16:27:21.785Z,56.00
2022-08-02T16:29:52.833Z,55.70
2022-08-02T16:32:23.823Z,55.50
2022-08-02T16:35:07.942Z,56.50
2022-08-02T16:37:50.468Z,56.00
2022-08-02T16:40:23.680Z,56.10
2022-08-02T16:42:54.623Z,55.50
2022-08-02T16:45:25.804Z,56.00
2022-08-02T16:48:01.738Z,55.60
2022-08-02T16:50:35.963Z,55.10
2022-08-02T16:53:07.726Z,55.30
2022-08-02T16:55:38.884Z,55.70
2022-08-02T16:58:22.735Z,55.10
2022-08-02T17:00:53.886Z,55.30
2022-08-02T17:03:24.889Z,55.60
2022-08-02T17:06:16.334Z,55.60
2022-08-02T17:08:54.101Z,55.30
2022-08-02T17:11:25.711Z,55.70
2022-08-02T17:13:56.991Z,55.50
2022-08-02T17:16:30.544Z,54.60
2022-08-02T17:19:01.588Z,54.90
2022-08-02T17:21:33.909Z,54.90
2022-08-02T17:26:56.221Z,55.30
2022-08-02T17:29:27.180Z,57.00
2022-08-02T17:32:09.109Z,56.00
2022-08-02T17:34:40.514Z,56.70
2022-08-02T17:37:28.708Z,57.70
2022-08-02T17:39:59.872Z,57.40
2022-08-02T17:42:30.827Z,58.10
2022-08-02T17:45:06.968Z,58.60
2022-08-02T17:48:04.736Z,59.20
2022-08-02T17:50:36.685Z,59.80
2022-08-02T17:53:08.787Z,59.20
2022-08-02T17:55:42.544Z,59.30
2022-08-02T17:58:13.805Z,59.70
2022-08-02T18:00:45.259Z,59.90
2022-08-02T18:03:16.275Z,60.80
2022-08-02T18:05:53.693Z,61.40
2022-08-02T18:08:26.504Z,60.80
2022-08-02T18:10:58.542Z,61.20
2022-08-02T18:13:33.075Z,61.00
2022-08-02T18:16:21.374Z,61.40
2022-08-02T18:18:52.591Z,62.70
2022-08-02T18:21:23.619Z,62.80
2022-08-02T18:23:58.434Z,63.40
2022-08-02T18:26:30.420Z,63.30
2022-08-02T18:29:05.567Z,64.20
2022-08-02T18:31:39.668Z,64.70
2022-08-02T18:34:11.125Z,64.20
2022-08-02T18:36:47.126Z,64.90
2022-08-02T18:39:18.831Z,65.30
2022-08-02T18:41:50.267Z,65.30
2022-08-02T18:44:21.429Z,65.80
2022-08-02T18:46:53.580Z,66.30
2022-08-02T18:49:25.562Z,66.70
2022-08-02T18:52:08.463Z,67.00
2022-08-02T18:54:39.389Z,67.00
2022-08-02T18:58:16.739Z,67.90
2022-08-02T19:00:02.239Z,68.60
2022-08-02T19:02:33.297Z,69.40
2022-08-02T19:05:06.945Z,69.50
2022-08-02T19:07:50.669Z,69.70
2022-08-02T19:10:23.935Z,70.10
2022-08-02T19:12:56.215Z,70.70
2022-08-02T19:15:27.096Z,70.20
2022-08-02T19:17:58.221Z,71.50
2022-08-02T19:20:30.146Z,71.80
2022-08-02T19:23:07.782Z,71.60
2022-08-02T19:25:39.496Z,71.80
2022-08-02T19:28:26.353Z,72.40
2022-08-02T19:31:12.177Z,72.70
2022-08-02T19:34:05.884Z,72.30
2022-08-02T19:36:35.257Z,73.00
2022-08-02T19:39:06.150Z,73.50
2022-08-02T19:41:43.907Z,73.70
2022-08-02T19:44:26.859Z,73.90
2022-08-02T19:46:59.721Z,74.20
2022-08-02T19:49:39.776Z,74.00
2022-08-02T19:52:21.211Z,74.90
2022-08-02T19:54:54.088Z,75.40
2022-08-02T19:57:27.069Z,75.80
2022-08-02T19:59:59.797Z,75.80
2022-08-02T20:02:30.743Z,75.50
2022-08-02T20:05:16.158Z,76.10
2022-08-02T20:10:40.721Z,76.90
2022-08-02T20:13:16.819Z,78.20
2022-08-02T20:15:56.981Z,78.10
2022-08-02T20:18:29.716Z,77.50
2022-08-02T20:21:01.057Z,78.00
2022-08-02T20:23:33.802Z,78.60
2022-08-02T20:26:06.354Z,78.90
2022-08-02T20:28:39.972Z,79.00
2022-08-02T20:31:10.984Z,78.90
2022-08-02T20:33:55.752Z,79.60
2022-08-02T20:36:28.426Z,80.50
2022-08-02T20:38:59.325Z,81.00
2022-08-02T20:41:37.135Z,80.30
2022-08-02T20:44:30.658Z,80.10
2022-08-02T20:47:02.322Z,81.00
2022-08-02T20:49:41.452Z,81.10
2022-08-02T20:52:23.979Z,81.70
2022-08-02T20:54:55.321Z,82.00
2022-08-02T20:57:49.195Z,82.60
2022-08-02T21:00:17.436Z,82.80
2022-08-02T21:02:51.629Z,83.00
2022-08-02T21:08:15.639Z,84.00
2022-08-02T21:10:52.024Z,84.00
2022-08-02T21:13:26.531Z,84.20
2022-08-02T21:16:00.667Z,84.80
2022-08-02T21:18:40.645Z,85.30
2022-08-02T21:21:12.204Z,86.00
2022-08-02T21:23:48.837Z,86.30
2022-08-02T21:26:28.300Z,87.20
2022-08-02T21:29:03.737Z,86.90
2022-08-02T21:31:35.991Z,87.80
2022-08-02T21:34:22.475Z,88.00
2022-08-02T21:36:57.959Z,88.20
2022-08-02T21:39:28.883Z,88.00
2022-08-02T21:42:00.092Z,88.40
2022-08-02T21:44:31.041Z,88.90
2022-08-02T21:47:01.959Z,89.10
2022-08-02T21:50:08.485Z,89.90
2022-08-02T21:52:25.499Z,90.00
2022-08-02T21:54:57.108Z,90.10
2022-08-02T21:57:34.605Z,90.40
2022-08-02T22:00:12.346Z,90.80
2022-08-02T22:02:43.328Z,91.00
2022-08-02T22:05:14.505Z,91.30
2022-08-02T22:10:56.276Z,91.70
2022-08-02T22:16:24.487Z,91.90
2022-08-02T22:18:58.216Z,92.10
2022-08-02T22:21:32.493Z,92.50
2022-08-02T22:24:19.288Z,92.80
2022-08-02T22:26:50.570Z,93.10
2022-08-02T22:29:21.944Z,93.30
2022-08-02T22:31:53.047Z,93.40
2022-08-02T22:34:37.519Z,93.50
2022-08-02T22:38:15.320Z,93.70
2022-08-02T22:40:09.220Z,93.70
2022-08-02T22:42:40.734Z,93.90
2022-08-02T22:45:11.769Z,94.10
2022-08-02T22:47:51.272Z,94.40
2022-08-02T22:50:22.476Z,94.30
2022-08-02T22:52:54.196Z,94.30
2022-08-02T22:55:25.504Z,94.20
2022-08-02T22:58:03.505Z,94.00
2022-08-02T22:58:49.821Z,55.50
2022-08-02T22:58:54.484Z,76.20
2022-08-02T22:58:56.965Z,83.50
2022-08-02T22:59:04.404Z,91.80
2022-08-02T22:59:12.143Z,91.60
2022-08-02T23:00:35.470Z,94.10
2022-08-02T23:03:06.685Z,94.20
2022-08-02T23:05:38.994Z,94.50
2022-08-02T23:08:10.008Z,94.50
2022-08-02T23:10:40.933Z,94.70
2022-08-02T23:13:12.021Z,94.90
2022-08-02T23:16:02.038Z,95.30
2022-08-02T23:18:51.342Z,95.40
2022-08-02T23:21:45.927Z,95.30
2022-08-02T23:24:13.120Z,95.30
2022-08-02T23:26:44.234Z,95.40
2022-08-02T23:29:15.194Z,95.60
2022-08-02T23:31:46.100Z,95.90
2022-08-02T23:34:17.447Z,96.10
2022-08-02T23:36:48.386Z,96.20
2022-08-02T23:39:19.364Z,96.50
2022-08-02T23:41:54.828Z,97.10
2022-08-02T23:44:27.844Z,97.20
2022-08-02T23:47:00.496Z,97.40
2022-08-02T23:49:31.446Z,97.20
2022-08-02T23:52:02.457Z,97.10
2022-08-02T23:54:33.345Z,97.10
2022-08-02T23:57:20.921Z,97.20
2022-08-02T23:59:52.459Z,97.30
